createdAt,value
2022-12-04T00:00:51.029Z,93317.28
2022-12-04T00:01:52.610Z,93317.81
2022-12-04T00:02:54.277Z,93319.19
2022-12-04T00:03:57.642Z,93317.00
2022-12-04T00:04:59.292Z,93325.63
2022-12-04T00:06:05.577Z,93323.28
2022-12-04T00:07:07.196Z,93325.63
2022-12-04T00:08:08.822Z,93317.72
2022-12-04T00:09:15.039Z,93319.22
2022-12-04T00:10:16.774Z,93334.19
2022-12-04T00:11:20.164Z,93335.03
2022-12-04T00:12:21.763Z,93336.22
2022-12-04T00:13:24.838Z,93329.44
2022-12-04T00:14:26.414Z,93319.22
2022-12-04T00:15:28.085Z,93319.78
2022-12-04T00:16:30.692Z,93320.59
2022-12-04T00:17:32.321Z,93326.31
2022-12-04T00:18:34.269Z,93322.75
2022-12-04T00:19:35.838Z,93323.94
2022-12-04T00:20:39.408Z,93325.06
2022-12-04T00:21:40.942Z,93319.34
2022-12-04T00:22:42.492Z,93323.69
2022-12-04T00:23:45.134Z,93323.72
2022-12-04T00:24:46.866Z,93323.81
2022-12-04T00:25:48.407Z,93318.50
2022-12-04T00:26:49.906Z,93318.34
2022-12-04T00:27:51.413Z,93315.53
2022-12-04T00:28:54.616Z,93320.03
2022-12-04T00:29:56.445Z,93324.78
2022-12-04T00:30:58.253Z,93326.56
2022-12-04T00:31:59.845Z,93328.75
2022-12-04T00:33:01.457Z,93327.09
2022-12-04T00:34:07.756Z,93325.06
2022-12-04T00:35:09.874Z,93325.34
2022-12-04T00:36:13.805Z,93329.16
2022-12-04T00:37:15.314Z,93313.72
2022-12-04T00:38:16.964Z,93319.88
2022-12-04T00:39:18.454Z,93320.81
2022-12-04T00:40:19.996Z,93327.50
2022-12-04T00:41:24.121Z,93324.50
2022-12-04T00:42:25.646Z,93311.66
2022-12-04T00:43:28.688Z,93314.34
2022-12-04T00:44:31.521Z,93310.84
2022-12-04T00:45:33.019Z,93317.28
2022-12-04T00:46:34.544Z,93314.59
2022-12-04T00:47:42.155Z,93320.31
2022-12-04T00:48:44.262Z,93319.88
2022-12-04T00:49:45.741Z,93319.63
2022-12-04T00:50:47.279Z,93332.09
2022-12-04T00:51:48.834Z,93322.31
2022-12-04T00:52:50.373Z,93323.66
2022-12-04T00:53:52.686Z,93318.25
2022-12-04T00:54:54.735Z,93316.50
2022-12-04T00:55:56.309Z,93320.44
2022-12-04T00:56:57.839Z,93320.69
2022-12-04T00:58:00.086Z,93319.06
2022-12-04T00:59:01.937Z,93328.19
2022-12-04T01:00:07.936Z,93330.13
2022-12-04T01:01:12.156Z,93329.44
2022-12-04T01:02:13.742Z,93327.56
2022-12-04T01:03:15.352Z,93326.19
2022-12-04T01:04:16.892Z,93331.66
2022-12-04T01:05:18.606Z,93333.97
2022-12-04T01:06:22.460Z,93322.63
2022-12-04T01:07:23.950Z,93321.13
2022-12-04T01:08:25.599Z,93329.72
2022-12-04T01:09:27.087Z,93326.31
2022-12-04T01:10:28.616Z,93330.94
2022-12-04T01:11:30.814Z,93330.81
2022-12-04T01:12:32.394Z,93327.00
2022-12-04T01:13:33.950Z,93334.06
2022-12-04T01:14:35.469Z,93336.94
2022-12-04T01:15:40.932Z,93338.88
2022-12-04T01:16:42.510Z,93334.63
2022-12-04T01:17:44.058Z,93336.94
2022-12-04T01:18:45.762Z,93327.94
2022-12-04T01:19:47.300Z,93331.59
2022-12-04T01:20:51.117Z,93336.69
2022-12-04T01:21:52.655Z,93343.31
2022-12-04T01:22:54.148Z,93341.38
2022-12-04T01:23:55.700Z,93348.81
2022-12-04T01:24:57.241Z,93335.13
2022-12-04T01:25:58.931Z,93339.63
2022-12-04T01:27:00.510Z,93345.13
2022-12-04T01:28:01.997Z,93334.34
2022-12-04T01:29:04.196Z,93333.53
2022-12-04T01:30:06.843Z,93339.69
2022-12-04T01:31:11.904Z,93336.94
2022-12-04T01:32:13.592Z,93340.75
2022-12-04T01:33:15.135Z,93335.31
2022-12-04T01:34:16.677Z,93340.31
2022-12-04T01:35:18.188Z,93335.44
2022-12-04T01:36:22.042Z,93336.22
2022-12-04T01:37:23.535Z,93337.63
2022-12-04T01:38:25.820Z,93338.44
2022-12-04T01:39:27.382Z,93335.97
2022-12-04T01:40:28.894Z,93336.22
2022-12-04T01:41:31.423Z,93334.63
2022-12-04T01:42:32.995Z,93333.88
2022-12-04T01:43:37.433Z,93332.56
2022-12-04T01:44:43.512Z,93332.56
2022-12-04T01:45:45.866Z,93335.03
2022-12-04T01:46:52.407Z,93328.34
2022-12-04T01:47:55.995Z,93329.16
2022-12-04T01:48:57.676Z,93327.28
2022-12-04T01:49:59.542Z,93314.94
2022-12-04T01:51:08.425Z,93319.75
2022-12-04T01:52:13.952Z,93324.16
2022-12-04T01:53:15.996Z,93317.41
2022-12-04T01:54:22.557Z,93306.38
2022-12-04T01:55:24.755Z,93316.19
2022-12-04T01:56:32.942Z,93308.56
2022-12-04T01:57:34.465Z,93318.72
2022-12-04T01:58:40.040Z,93320.38
2022-12-04T01:59:45.079Z,93320.81
2022-12-04T02:00:51.625Z,93314.16
2022-12-04T02:01:59.301Z,93323.44
2022-12-04T02:03:01.549Z,93319.88
2022-12-04T02:04:03.317Z,93312.53
2022-12-04T02:05:08.130Z,93307.75
2022-12-04T02:06:09.689Z,93312.38
2022-12-04T02:07:11.285Z,93313.50
2022-12-04T02:08:34.937Z,93306.69
2022-12-04T02:09:38.456Z,93302.47
2022-12-04T02:10:48.174Z,93297.94
2022-12-04T02:11:56.934Z,93295.78
2022-12-04T02:13:07.369Z,93293.72
2022-12-04T02:14:21.117Z,93293.59
2022-12-04T02:15:27.460Z,93291.81
2022-12-04T02:16:37.495Z,93292.63
2022-12-04T02:17:49.336Z,93293.59
2022-12-04T02:19:31.854Z,93281.56
2022-12-04T02:20:40.119Z,93283.06
2022-12-04T02:21:45.692Z,93282.13
2022-12-04T02:23:06.305Z,93288.66
2022-12-04T02:24:28.338Z,93287.13
2022-12-04T02:25:35.684Z,93276.59
2022-12-04T02:26:45.524Z,93280.84
2022-12-04T02:28:02.060Z,93273.78
2022-12-04T02:29:09.566Z,93283.50
2022-12-04T02:30:14.063Z,93281.25
2022-12-04T02:31:20.033Z,93281.47
2022-12-04T02:32:28.136Z,93282.78
2022-12-04T02:33:41.077Z,93291.06
2022-12-04T02:34:49.177Z,93282.00
2022-12-04T02:35:59.410Z,93277.34
2022-12-04T02:37:05.259Z,93275.28
2022-12-04T02:38:14.179Z,93283.19
2022-12-04T02:39:22.549Z,93277.75
2022-12-04T02:40:29.325Z,93274.34
2022-12-04T02:41:37.967Z,93273.78
2022-12-04T02:42:42.827Z,93267.13
2022-12-04T02:43:50.325Z,93273.41
2022-12-04T02:45:01.259Z,93269.16
2022-12-04T02:46:07.655Z,93268.59
2022-12-04T02:47:13.238Z,93269.72
2022-12-04T02:48:18.273Z,93270.00
2022-12-04T02:49:24.826Z,93261.25
2022-12-04T02:50:27.938Z,93267.50
2022-12-04T02:51:34.680Z,93269.13
2022-12-04T02:52:48.349Z,93262.41
2022-12-04T02:53:54.182Z,93272.28
2022-12-04T02:55:01.098Z,93265.22
2022-12-04T02:56:10.097Z,93263.84
2022-12-04T02:57:15.895Z,93255.28
2022-12-04T02:58:25.485Z,93251.19
2022-12-04T02:59:33.714Z,93252.13
2022-12-04T03:00:36.865Z,93249.00
2022-12-04T03:01:51.466Z,93241.94
2022-12-04T03:02:58.938Z,93237.84
2022-12-04T03:04:07.770Z,93236.34
2022-12-04T03:05:13.436Z,93236.91
2022-12-04T03:06:17.996Z,93235.78
2022-12-04T03:07:25.285Z,93240.69
2022-12-04T03:08:32.523Z,93240.03
2022-12-04T03:09:37.812Z,93244.09
2022-12-04T03:10:43.739Z,93240.53
2022-12-04T03:11:52.436Z,93247.78
2022-12-04T03:12:58.872Z,93246.09
2022-12-04T03:14:04.406Z,93261.22
2022-12-04T03:15:14.034Z,93256.59
2022-12-04T03:16:19.564Z,93255.81
2022-12-04T03:17:30.347Z,93267.00
2022-12-04T03:18:37.327Z,93265.13
2022-12-04T03:19:44.105Z,93267.28
2022-12-04T03:20:49.854Z,93265.50
2022-12-04T03:21:58.605Z,93261.28
2022-12-04T03:23:04.749Z,93263.72
2022-12-04T03:24:12.908Z,93270.81
2022-12-04T03:25:14.505Z,93270.00
2022-12-04T03:26:23.889Z,93266.59
2022-12-04T03:27:34.623Z,93266.31
2022-12-04T03:28:46.839Z,93261.84
2022-12-04T03:29:55.275Z,93255.94
2022-12-04T03:31:03.936Z,93262.91
2022-12-04T03:32:10.434Z,93260.75
2022-12-04T03:33:15.122Z,93265.25
2022-12-04T03:34:25.573Z,93265.78
2022-12-04T03:35:33.135Z,93265.66
2022-12-04T03:36:38.389Z,93257.91
2022-12-04T03:37:46.944Z,93257.47
2022-12-04T03:38:54.987Z,93264.41
2022-12-04T03:40:02.232Z,93262.38
2022-12-04T03:41:06.709Z,93257.06
2022-12-04T03:42:14.748Z,93263.44
2022-12-04T03:43:24.640Z,93261.53
2022-12-04T03:44:32.765Z,93264.13
2022-12-04T03:45:43.657Z,93269.72
2022-12-04T03:46:52.659Z,93264.13
2022-12-04T03:47:58.875Z,93265.09
2022-12-04T03:49:09.840Z,93264.41
2022-12-04T03:50:18.151Z,93277.91
2022-12-04T03:51:23.403Z,93275.47
2022-12-04T03:52:29.756Z,93282.97
2022-12-04T03:53:36.787Z,93288.28
2022-12-04T03:54:44.377Z,93294.41
2022-12-04T03:55:52.092Z,93293.34
2022-12-04T03:56:59.543Z,93294.81
2022-12-04T03:58:05.991Z,93293.19
2022-12-04T03:59:12.614Z,93290.75
2022-12-04T04:00:17.373Z,93289.94
2022-12-04T04:01:24.041Z,93290.03
2022-12-04T04:02:32.944Z,93288.28
2022-12-04T04:03:38.272Z,93294.94
2022-12-04T04:04:43.248Z,93291.81
2022-12-04T04:05:47.986Z,93291.38
2022-12-04T04:06:55.213Z,93289.75
2022-12-04T04:07:59.769Z,93290.56
2022-12-04T04:09:08.981Z,93292.75
2022-12-04T04:10:15.088Z,93283.59
2022-12-04T04:11:21.866Z,93287.16
2022-12-04T04:12:27.163Z,93283.78
2022-12-04T04:13:35.310Z,93282.97
2022-12-04T04:14:42.575Z,93277.34
2022-12-04T04:15:48.417Z,93277.09
2022-12-04T04:16:55.845Z,93280.91
2022-12-04T04:18:01.345Z,93282.00
2022-12-04T04:19:03.677Z,93272.69
2022-12-04T04:20:08.897Z,93270.94
2022-12-04T04:21:13.228Z,93264.81
2022-12-04T04:22:19.046Z,93268.25
2022-12-04T04:23:22.460Z,93266.31
2022-12-04T04:24:30.436Z,93267.16
2022-12-04T04:25:36.365Z,93259.22
2022-12-04T04:26:43.716Z,93268.09
2022-12-04T04:27:51.979Z,93268.34
2022-12-04T04:28:53.481Z,93265.22
2022-12-04T04:29:55.264Z,93270.94
2022-12-04T04:31:05.618Z,93273.53
2022-12-04T04:32:13.980Z,93272.06
2022-12-04T04:33:17.214Z,93269.84
2022-12-04T04:34:24.841Z,93270.00
2022-12-04T04:35:32.785Z,93263.34
2022-12-04T04:36:45.685Z,93271.66
2022-12-04T04:37:56.503Z,93267.28
2022-12-04T04:39:02.385Z,93265.09
2022-12-04T04:40:13.970Z,93272.56
2022-12-04T04:41:22.932Z,93273.16
2022-12-04T04:42:27.711Z,93272.88
2022-12-04T04:43:33.627Z,93272.72
2022-12-04T04:44:44.276Z,93267.41
2022-12-04T04:45:48.356Z,93273.81
2022-12-04T04:46:53.825Z,93272.63
2022-12-04T04:48:02.271Z,93276.00
2022-12-04T04:49:09.046Z,93281.19
2022-12-04T04:50:12.513Z,93276.56
2022-12-04T04:51:14.850Z,93281.75
2022-12-04T04:52:18.520Z,93266.47
2022-12-04T04:53:25.245Z,93274.50
2022-12-04T04:54:29.799Z,93270.28
2022-12-04T04:55:36.751Z,93272.19
2022-12-04T04:56:40.951Z,93274.94
2022-12-04T04:57:42.886Z,93268.22
2022-12-04T04:58:44.561Z,93270.13
2022-12-04T04:59:46.095Z,93272.88
2022-12-04T05:00:56.504Z,93273.56
2022-12-04T05:01:58.314Z,93273.44
2022-12-04T05:02:59.892Z,93270.41
2022-12-04T05:04:02.618Z,93272.63
2022-12-04T05:05:06.277Z,93279.28
2022-12-04T05:06:08.240Z,93285.03
2022-12-04T05:07:09.807Z,93285.41
2022-12-04T05:08:11.355Z,93293.72
2022-12-04T05:09:12.889Z,93296.84
2022-12-04T05:10:14.386Z,93291.94
2022-12-04T05:11:16.925Z,93285.81
2022-12-04T05:12:18.512Z,93283.50
2022-12-04T05:13:20.716Z,93281.44
2022-12-04T05:14:22.264Z,93277.22
2022-12-04T05:15:23.939Z,93280.09
2022-12-04T05:16:25.537Z,93271.22
2022-12-04T05:17:27.120Z,93273.69
2022-12-04T05:18:29.060Z,93275.31
2022-12-04T05:19:32.482Z,93279.91
2022-12-04T05:20:38.124Z,93286.34
2022-12-04T05:21:39.641Z,93277.50
2022-12-04T05:22:41.163Z,93279.16
2022-12-04T05:23:42.733Z,93274.94
2022-12-04T05:24:44.292Z,93270.41
2022-12-04T05:25:45.970Z,93272.84
2022-12-04T05:26:47.448Z,93267.97
2022-12-04T05:27:49.182Z,93270.13
2022-12-04T05:28:50.766Z,93260.72
2022-12-04T05:29:53.095Z,93262.91
2022-12-04T05:30:55.586Z,93257.06
2022-12-04T05:31:57.156Z,93262.09
2022-12-04T05:32:58.699Z,93254.16
2022-12-04T05:34:00.208Z,93262.63
2022-12-04T05:35:04.038Z,93252.81
2022-12-04T05:36:11.632Z,93258.41
2022-12-04T05:37:13.168Z,93254.22
2022-12-04T05:38:14.692Z,93250.91
2022-12-04T05:39:16.219Z,93251.59
2022-12-04T05:40:18.103Z,93258.97
2022-12-04T05:41:19.619Z,93255.94
2022-12-04T05:42:21.557Z,93260.03
2022-12-04T05:43:23.085Z,93253.38
2022-12-04T05:44:24.886Z,93259.75
2022-12-04T05:45:26.424Z,93253.22
2022-12-04T05:46:28.017Z,93258.41
2022-12-04T05:47:29.545Z,93251.47
2022-12-04T05:48:31.524Z,93242.72
2022-12-04T05:49:34.138Z,93255.97
2022-12-04T05:50:35.818Z,93252.44
2022-12-04T05:51:38.638Z,93255.84
2022-12-04T05:52:40.179Z,93243.97
2022-12-04T05:53:41.724Z,93244.25
2022-12-04T05:54:43.634Z,93248.88
2022-12-04T05:55:45.174Z,93248.75
2022-12-04T05:56:46.709Z,93247.66
2022-12-04T05:57:48.246Z,93255.00
2022-12-04T05:58:49.727Z,93253.72
2022-12-04T05:59:51.362Z,93254.84
2022-12-04T06:00:53.114Z,93245.97
2022-12-04T06:01:54.762Z,93247.53
2022-12-04T06:02:56.379Z,93241.81
2022-12-04T06:03:57.946Z,93246.56
2022-12-04T06:04:59.430Z,93246.84
2022-12-04T06:06:00.978Z,93253.00
2022-12-04T06:07:07.176Z,93247.25
2022-12-04T06:08:08.932Z,93241.66
2022-12-04T06:09:11.840Z,93241.41
2022-12-04T06:10:13.376Z,93241.50
2022-12-04T06:11:17.092Z,93238.94
2022-12-04T06:12:18.588Z,93231.44
2022-12-04T06:13:20.088Z,93233.19
2022-12-04T06:14:21.606Z,93237.00
2022-12-04T06:15:23.347Z,93240.69
2022-12-04T06:16:27.189Z,93246.41
2022-12-04T06:17:28.787Z,93239.88
2022-12-04T06:18:30.321Z,93249.16
2022-12-04T06:19:31.900Z,93250.78
2022-12-04T06:20:34.118Z,93264.41
2022-12-04T06:21:37.611Z,93259.53
2022-12-04T06:22:40.557Z,93265.50
2022-12-04T06:23:42.090Z,93254.88
2022-12-04T06:24:43.636Z,93259.94
2022-12-04T06:25:45.136Z,93250.66
2022-12-04T06:27:11.163Z,93254.72
2022-12-04T06:28:08.327Z,93254.03
2022-12-04T06:29:11.089Z,93261.09
2022-12-04T06:30:13.050Z,93256.13
2022-12-04T06:31:16.550Z,93266.47
2022-12-04T06:32:21.665Z,93270.56
2022-12-04T06:33:23.387Z,93269.06
2022-12-04T06:34:24.977Z,93279.41
2022-12-04T06:35:26.496Z,93280.94
2022-12-04T06:36:28.009Z,93285.28
2022-12-04T06:37:29.718Z,93292.38
2022-12-04T06:38:33.323Z,93283.06
2022-12-04T06:39:34.821Z,93282.25
2022-12-04T06:40:39.701Z,93277.31
2022-12-04T06:41:41.241Z,93279.81
2022-12-04T06:42:42.757Z,93279.19
2022-12-04T06:43:44.811Z,93284.84
2022-12-04T06:44:46.294Z,93285.66
2022-12-04T06:45:48.158Z,93285.25
2022-12-04T06:46:50.174Z,93285.56
2022-12-04T06:47:51.814Z,93284.03
2022-12-04T06:48:55.509Z,93280.34
2022-12-04T06:49:57.253Z,93268.75
2022-12-04T06:51:00.245Z,93277.22
2022-12-04T06:52:01.804Z,93274.63
2022-12-04T06:53:08.147Z,93278.16
2022-12-04T06:54:11.905Z,93267.50
2022-12-04T06:55:13.407Z,93267.50
2022-12-04T06:56:16.887Z,93273.81
2022-12-04T06:57:27.886Z,93273.69
2022-12-04T06:58:29.782Z,93264.03
2022-12-04T06:59:31.273Z,93265.22
2022-12-04T07:00:32.776Z,93269.31
2022-12-04T07:01:34.842Z,93261.13
2022-12-04T07:02:36.468Z,93269.19
2022-12-04T07:03:38.669Z,93273.50
2022-12-04T07:04:40.189Z,93271.69
2022-12-04T07:05:41.700Z,93275.19
2022-12-04T07:06:43.186Z,93276.38
2022-12-04T07:07:44.719Z,93279.13
2022-12-04T07:08:48.491Z,93278.28
2022-12-04T07:09:51.364Z,93290.66
2022-12-04T07:10:58.847Z,93289.03
2022-12-04T07:12:00.755Z,93282.56
2022-12-04T07:13:02.475Z,93282.41
2022-12-04T07:14:04.381Z,93269.47
2022-12-04T07:15:06.842Z,93275.31
2022-12-04T07:16:11.268Z,93277.09
2022-12-04T07:17:12.961Z,93275.88
2022-12-04T07:18:14.503Z,93270.56
2022-12-04T07:19:16.028Z,93271.09
2022-12-04T07:20:17.767Z,93276.56
2022-12-04T07:21:21.327Z,93283.91
2022-12-04T07:22:22.795Z,93283.50
2022-12-04T07:23:24.357Z,93289.78
2022-12-04T07:24:25.886Z,93290.75
2022-12-04T07:25:28.780Z,93298.25
2022-12-04T07:26:30.845Z,93290.06
2022-12-04T07:27:32.323Z,93292.63
2022-12-04T07:28:34.172Z,93289.03
2022-12-04T07:29:35.727Z,93292.06
2022-12-04T07:30:37.309Z,93280.19
2022-12-04T07:31:38.986Z,93290.13
2022-12-04T07:32:40.955Z,93282.41
2022-12-04T07:33:43.121Z,93280.66
2022-12-04T07:34:44.642Z,93277.56
2022-12-04T07:35:54.858Z,93283.22
2022-12-04T07:36:56.340Z,93282.81
2022-12-04T07:37:58.661Z,93291.94
2022-12-04T07:39:00.175Z,93293.38
2022-12-04T07:40:01.781Z,93288.56
2022-12-04T07:41:06.184Z,93285.03
2022-12-04T07:42:07.757Z,93278.19
2022-12-04T07:43:09.302Z,93279.78
2022-12-04T07:44:10.846Z,93278.03
2022-12-04T07:45:12.378Z,93280.28
2022-12-04T07:46:16.586Z,93276.84
2022-12-04T07:47:18.120Z,93279.69
2022-12-04T07:48:19.767Z,93277.22
2022-12-04T07:49:21.268Z,93272.72
2022-12-04T07:50:22.779Z,93279.25
2022-12-04T07:51:26.045Z,93274.28
2022-12-04T07:52:27.610Z,93271.59
2022-12-04T07:53:29.138Z,93271.97
2022-12-04T07:54:30.744Z,93278.25
2022-12-04T07:55:32.307Z,93272.94
2022-12-04T07:56:35.168Z,93279.44
2022-12-04T07:57:36.720Z,93281.13
2022-12-04T07:58:38.602Z,93283.94
2022-12-04T07:59:40.075Z,93282.97
2022-12-04T08:00:41.597Z,93289.19
2022-12-04T08:01:43.212Z,93291.72
2022-12-04T08:02:44.762Z,93285.66
2022-12-04T08:03:49.010Z,93282.94
2022-12-04T08:04:50.969Z,93279.06
2022-12-04T08:05:52.581Z,93279.53
2022-12-04T08:06:54.063Z,93285.22
2022-12-04T08:07:55.695Z,93282.91
2022-12-04T08:08:57.309Z,93284.31
2022-12-04T08:09:58.888Z,93284.38
2022-12-04T08:11:01.203Z,93285.31
2022-12-04T08:12:04.288Z,93277.25
2022-12-04T08:13:05.783Z,93279.03
2022-12-04T08:14:07.375Z,93283.78
2022-12-04T08:15:10.094Z,93285.09
2022-12-04T08:16:12.955Z,93289.28
2022-12-04T08:17:14.484Z,93292.16
2022-12-04T08:18:16.154Z,93306.09
2022-12-04T08:19:17.638Z,93302.25
2022-12-04T08:20:19.148Z,93294.72
2022-12-04T08:21:23.221Z,93303.50
2022-12-04T08:22:25.572Z,93296.78
2022-12-04T08:23:27.135Z,93299.25
2022-12-04T08:24:28.648Z,93295.16
2022-12-04T08:25:30.222Z,93300.44
2022-12-04T08:26:32.779Z,93302.72
2022-12-04T08:27:35.956Z,93303.19
2022-12-04T08:28:37.841Z,93305.97
2022-12-04T08:29:39.383Z,93306.53
2022-12-04T08:30:40.983Z,93303.91
2022-12-04T08:31:42.538Z,93308.75
2022-12-04T08:32:44.220Z,93305.22
2022-12-04T08:33:47.130Z,93303.38
2022-12-04T08:34:55.549Z,93300.94
2022-12-04T08:35:57.563Z,93299.41
2022-12-04T08:36:59.090Z,93299.53
2022-12-04T08:38:00.617Z,93302.25
2022-12-04T08:39:02.273Z,93312.72
2022-12-04T08:40:04.648Z,93304.88
2022-12-04T08:41:10.698Z,93308.97
2022-12-04T08:42:12.215Z,93309.09
2022-12-04T08:43:15.192Z,93317.34
2022-12-04T08:44:16.728Z,93323.63
2022-12-04T08:45:18.257Z,93314.34
2022-12-04T08:46:20.206Z,93318.31
2022-12-04T08:47:21.785Z,93316.66
2022-12-04T08:48:23.384Z,93310.66
2022-12-04T08:49:24.913Z,93314.50
2022-12-04T08:50:26.423Z,93311.25
2022-12-04T08:51:29.964Z,93305.03
2022-12-04T08:52:31.490Z,93302.00
2022-12-04T08:53:32.971Z,93307.13
2022-12-04T08:54:36.277Z,93302.16
2022-12-04T08:55:37.987Z,93291.41
2022-12-04T08:56:39.562Z,93296.03
2022-12-04T08:57:41.091Z,93297.53
2022-12-04T08:58:43.942Z,93301.53
2022-12-04T08:59:45.515Z,93292.75
2022-12-04T09:00:47.030Z,93287.97
2022-12-04T09:01:50.223Z,93284.16
2022-12-04T09:02:51.776Z,93280.91
2022-12-04T09:03:53.908Z,93279.28
2022-12-04T09:04:55.522Z,93281.72
2022-12-04T09:05:59.326Z,93274.66
2022-12-04T09:07:00.880Z,93260.03
2022-12-04T09:08:02.433Z,93252.28
2022-12-04T09:09:04.281Z,93258.81
2022-12-04T09:10:06.949Z,93267.56
2022-12-04T09:11:10.636Z,93255.16
2022-12-04T09:12:12.197Z,93250.50
2022-12-04T09:13:13.712Z,93243.00
2022-12-04T09:14:16.567Z,93245.22
2022-12-04T09:15:18.402Z,93243.56
2022-12-04T09:16:22.197Z,93245.34
2022-12-04T09:17:23.753Z,93242.47
2022-12-04T09:18:25.534Z,93230.59
2022-12-04T09:19:27.262Z,93232.41
2022-12-04T09:20:28.810Z,93227.75
2022-12-04T09:21:30.620Z,93232.28
2022-12-04T09:22:57.762Z,93225.06
2022-12-04T09:23:55.112Z,93221.78
2022-12-04T09:24:56.637Z,93226.81
2022-12-04T09:25:58.149Z,93230.22
2022-12-04T09:26:59.693Z,93228.31
2022-12-04T09:28:01.246Z,93226.28
2022-12-04T09:29:05.632Z,93226.28
2022-12-04T09:30:11.442Z,93228.88
2022-12-04T09:31:13.226Z,93240.03
2022-12-04T09:32:14.821Z,93249.41
2022-12-04T09:33:16.296Z,93258.53
2022-12-04T09:34:17.870Z,93266.09
2022-12-04T09:35:19.549Z,93260.53
2022-12-04T09:36:21.496Z,93264.41
2022-12-04T09:37:23.071Z,93258.16
2022-12-04T09:38:24.578Z,93266.63
2022-12-04T09:39:26.100Z,93273.78
2022-12-04T09:40:35.503Z,93281.19
2022-12-04T09:42:22.843Z,93280.22
2022-12-04T09:43:31.030Z,93280.84
2022-12-04T09:44:35.327Z,93284.34
2022-12-04T09:45:46.386Z,93290.53
2022-12-04T09:46:51.894Z,93296.44
2022-12-04T09:47:57.479Z,93287.66
2022-12-04T09:49:03.043Z,93277.34
2022-12-04T09:50:13.932Z,93273.97
2022-12-04T09:51:19.222Z,93271.66
2022-12-04T09:52:30.947Z,93278.91
2022-12-04T09:53:42.432Z,93275.09
2022-12-04T09:54:44.409Z,93268.31
2022-12-04T09:55:54.551Z,93266.97
2022-12-04T09:57:02.705Z,93258.22
2022-12-04T09:58:06.482Z,93252.97
2022-12-04T09:59:14.458Z,93251.47
2022-12-04T10:00:18.218Z,93256.44
2022-12-04T10:01:24.217Z,93250.47
2022-12-04T10:02:35.575Z,93266.47
2022-12-04T10:03:37.386Z,93273.50
2022-12-04T10:04:39.045Z,93281.09
2022-12-04T10:05:54.097Z,93272.88
2022-12-04T10:07:04.883Z,93264.69
2022-12-04T10:08:15.410Z,93263.94
2022-12-04T10:09:21.822Z,93250.72
2022-12-04T10:10:33.775Z,93249.06
2022-12-04T10:11:52.058Z,93248.03
2022-12-04T10:12:57.648Z,93241.81
2022-12-04T10:14:10.930Z,93240.25
2022-12-04T10:15:26.281Z,93246.34
2022-12-04T10:16:44.941Z,93240.78
2022-12-04T10:18:18.496Z,93236.31
2022-12-04T10:19:28.998Z,93241.19
2022-12-04T10:20:52.140Z,93248.41
2022-12-04T10:22:03.662Z,93246.50
2022-12-04T10:23:24.935Z,93249.28
2022-12-04T10:24:38.087Z,93238.88
2022-12-04T10:25:40.448Z,93239.25
2022-12-04T10:26:45.880Z,93247.00
2022-12-04T10:27:51.600Z,93241.31
2022-12-04T10:28:57.087Z,93239.50
2022-12-04T10:30:02.783Z,93242.34
2022-12-04T10:31:06.220Z,93249.06
2022-12-04T10:32:18.741Z,93255.44
2022-12-04T10:33:23.472Z,93255.94
2022-12-04T10:34:27.306Z,93254.22
2022-12-04T10:35:31.150Z,93265.69
2022-12-04T10:36:34.872Z,93269.41
2022-12-04T10:37:40.894Z,93254.34
2022-12-04T10:38:47.281Z,93241.41
2022-12-04T10:39:54.928Z,93238.25
2022-12-04T10:41:02.699Z,93238.22
2022-12-04T10:42:11.631Z,93241.28
2022-12-04T10:43:18.244Z,93251.56
2022-12-04T10:44:20.595Z,93250.66
2022-12-04T10:45:23.510Z,93257.44
2022-12-04T10:46:27.877Z,93242.25
2022-12-04T10:47:30.832Z,93245.91
2022-12-04T10:48:36.200Z,93243.84
2022-12-04T10:49:38.294Z,93246.00
2022-12-04T10:50:39.792Z,93244.72
2022-12-04T10:51:43.073Z,93244.72
2022-12-04T10:52:45.462Z,93239.38
2022-12-04T10:53:47.756Z,93240.94
2022-12-04T10:54:52.068Z,93239.47
2022-12-04T10:55:53.585Z,93242.38
2022-12-04T10:56:57.261Z,93248.75
2022-12-04T10:57:58.921Z,93241.19
2022-12-04T10:59:02.665Z,93243.78
2022-12-04T11:00:22.825Z,93250.47
2022-12-04T11:01:24.652Z,93240.78
2022-12-04T11:02:28.784Z,93238.97
2022-12-04T11:03:32.300Z,93244.50
2022-12-04T11:04:35.108Z,93253.97
2022-12-04T11:05:44.043Z,93252.56
2022-12-04T11:06:45.631Z,93255.00
2022-12-04T11:07:49.228Z,93257.28
2022-12-04T11:08:51.551Z,93251.84
2022-12-04T11:09:58.891Z,93249.59
2022-12-04T11:11:02.297Z,93248.97
2022-12-04T11:12:09.350Z,93241.78
2022-12-04T11:13:16.227Z,93246.00
2022-12-04T11:14:20.687Z,93242.31
2022-12-04T11:15:22.898Z,93248.84
2022-12-04T11:16:33.515Z,93241.19
2022-12-04T11:17:35.068Z,93236.06
2022-12-04T11:18:48.308Z,93247.16
2022-12-04T11:19:59.575Z,93242.31
2022-12-04T11:21:04.371Z,93245.59
2022-12-04T11:22:13.411Z,93246.22
2022-12-04T11:23:16.413Z,93235.50
2022-12-04T11:24:21.810Z,93229.28
2022-12-04T11:25:26.860Z,93226.56
2022-12-04T11:26:34.942Z,93224.38
2022-12-04T11:27:37.387Z,93226.63
2022-12-04T11:28:43.618Z,93233.75
2022-12-04T11:29:46.367Z,93234.50
2022-12-04T11:30:52.321Z,93230.66
2022-12-04T11:31:55.589Z,93231.53
2022-12-04T11:32:58.145Z,93228.16
2022-12-04T11:34:05.288Z,93225.84
2022-12-04T11:35:14.613Z,93227.81
2022-12-04T11:36:21.497Z,93229.16
2022-12-04T11:37:27.724Z,93225.53
2022-12-04T11:38:35.948Z,93227.81
2022-12-04T11:39:41.098Z,93212.88
2022-12-04T11:40:46.807Z,93208.69
2022-12-04T11:41:59.959Z,93197.47
2022-12-04T11:43:04.991Z,93182.16
2022-12-04T11:44:07.429Z,93177.84
2022-12-04T11:45:20.695Z,93184.69
2022-12-04T11:46:25.127Z,93186.28
2022-12-04T11:47:29.419Z,93187.19
2022-12-04T11:48:40.591Z,93174.47
2022-12-04T11:49:44.002Z,93167.44
2022-12-04T11:50:52.925Z,93165.06
2022-12-04T11:52:10.892Z,93174.09
2022-12-04T11:53:17.484Z,93174.59
2022-12-04T11:54:29.862Z,93176.91
2022-12-04T11:55:41.884Z,93176.38
2022-12-04T11:56:56.603Z,93172.59
2022-12-04T11:58:15.586Z,93175.91
2022-12-04T11:59:34.668Z,93166.06
2022-12-04T12:00:46.080Z,93154.59
2022-12-04T12:01:54.690Z,93162.28
2022-12-04T12:03:12.832Z,93158.75
2022-12-04T12:04:37.200Z,93163.44
2022-12-04T12:06:00.622Z,93163.88
2022-12-04T12:07:19.050Z,93163.53
2022-12-04T12:08:31.546Z,93165.34
2022-12-04T12:11:14.349Z,93165.81
2022-12-04T12:12:23.982Z,93157.72
2022-12-04T12:13:35.000Z,93159.16
2022-12-04T12:14:46.897Z,93161.50
2022-12-04T12:15:58.108Z,93155.28
2022-12-04T12:17:10.079Z,93157.47
2022-12-04T12:18:30.507Z,93153.06
2022-12-04T12:19:44.616Z,93150.56
2022-12-04T12:20:56.447Z,93142.03
2022-12-04T12:22:08.494Z,93157.19
2022-12-04T12:23:27.775Z,93163.31
2022-12-04T12:24:30.961Z,93171.72
2022-12-04T12:25:39.688Z,93176.56
2022-12-04T12:26:49.710Z,93184.91
2022-12-04T12:28:01.616Z,93185.66
2022-12-04T12:29:17.567Z,93193.28
2022-12-04T12:30:21.333Z,93189.50
2022-12-04T12:31:53.254Z,93192.47
2022-12-04T12:33:02.438Z,93190.91
2022-12-04T12:34:08.395Z,93187.94
2022-12-04T12:35:21.382Z,93186.00
2022-12-04T12:36:29.274Z,93185.06
2022-12-04T12:37:41.277Z,93185.03
2022-12-04T12:38:47.543Z,93180.91
2022-12-04T12:39:54.487Z,93179.47
2022-12-04T12:41:01.471Z,93183.81
2022-12-04T12:42:03.055Z,93173.56
2022-12-04T12:43:10.871Z,93176.66
2022-12-04T12:44:17.770Z,93174.03
2022-12-04T12:45:28.166Z,93180.31